Newtok, Alaska
Current Conditions -  °F | °C
As of 9:53 AM on Monday 20 Oct 2014 (Local Time) from PABE Reporting Station
Light Snow Light Snow  
Wind Chill: 14°   Ceiling: 4200
Heat Index: 26°   Visibility: 2mi
Dew Point: 25°   Wind: 15mph
Humidity: 96%   Direction: 340°NNW
Pressure: 29.19"   Gusts: NA
Location:  60.7494°N, 161.727°W
Report Text: PABE 201753Z 34013KT 2SM -SN BR OVC042 M03/M04 A2919 RMK AO2 SLP887 6003 P0001 4/001 T10331039 11033 21044 56004
Loading
Personal Weather Stations






























Interactive Weather Map
Tropical Storm Tracking
New forecast layout! Learn more

10-Day Weather Forecast

Advertisements
Track Severe Weather on mobile